sensor_id;sensor_type;location;lat;lon;timestamp;P1;durP1;ratioP1;P2;durP2;ratioP2
55013;SDS011;40916;51.632;5.552;2023-01-10T00:04:17;3;;;17.2;;
55013;SDS011;40916;51.632;5.552;2023-01-10T00:09:17;2.3;;;14.9;;
55013;SDS011;40916;51.632;5.552;2023-01-10T00:14:17;1.7;;;6.6;;
55013;SDS011;40916;51.632;5.552;2023-01-10T00:19:17;2.6;;;12;;
55013;SDS011;40916;51.632;5.552;2023-01-10T00:24:17;2.7;;;9.9;;
55013;SDS011;40916;51.632;5.552;2023-01-10T00:29:17;3.6;;;12.6;;
55013;SDS011;40916;51.632;5.552;2023-01-10T00:34:17;4;;;19.9;;
55013;SDS011;40916;51.632;5.552;2023-01-10T00:39:17;3.5;;;19.3;;
55013;SDS011;40916;51.632;5.552;2023-01-10T00:44:17;2.4;;;15.7;;
55013;SDS011;40916;51.632;5.552;2023-01-10T00:49:17;2.9;;;9.9;;
55013;SDS011;40916;51.632;5.552;2023-01-10T00:54:17;3;;;17.3;;
55013;SDS011;40916;51.632;5.552;2023-01-10T00:59:17;3.5;;;17.5;;
55013;SDS011;40916;51.632;5.552;2023-01-10T01:04:17;4;;;20.6;;
55013;SDS011;40916;51.632;5.552;2023-01-10T01:09:17;2;;;6.9;;
55013;SDS011;40916;51.632;5.552;2023-01-10T01:14:17;3.7;;;17.4;;
55013;SDS011;40916;51.632;5.552;2023-01-10T01:19:17;3.8;;;11.5;;
55013;SDS011;40916;51.632;5.552;2023-01-10T01:24:17;2.4;;;9.9;;
55013;SDS011;40916;51.632;5.552;2023-01-10T01:29:17;2.3;;;14.8;;
55013;SDS011;40916;51.632;5.552;2023-01-10T01:34:17;3;;;14.4;;
55013;SDS011;40916;51.632;5.552;2023-01-10T01:39:17;3.8;;;15.3;;
55013;SDS011;40916;51.632;5.552;2023-01-10T01:44:17;3.3;;;18.8;;
55013;SDS011;40916;51.632;5.552;2023-01-10T01:49:17;3.3;;;8.6;;
55013;SDS011;40916;51.632;5.552;2023-01-10T01:54:17;3.3;;;22.5;;
55013;SDS011;40916;51.632;5.552;2023-01-10T01:59:17;4.6;;;25.7;;
55013;SDS011;40916;51.632;5.552;2023-01-10T02:04:17;2.9;;;11.6;;
55013;SDS011;40916;51.632;5.552;2023-01-10T02:09:17;3.2;;;12.7;;
55013;SDS011;40916;51.632;5.552;2023-01-10T02:14:17;3.6;;;23.4;;
55013;SDS011;40916;51.632;5.552;2023-01-10T02:19:19;2.8;;;8.5;;
55013;SDS011;40916;51.632;5.552;2023-01-10T02:24:29;2.3;;;8;;
55013;SDS011;40916;51.632;5.552;2023-01-10T02:29:21;2.5;;;19.7;;
55013;SDS011;40916;51.632;5.552;2023-01-10T02:34:18;3.1;;;12.9;;
55013;SDS011;40916;51.632;5.552;2023-01-10T02:39:17;2.9;;;10.3;;
55013;SDS011;40916;51.632;5.552;2023-01-10T02:44:18;2.7;;;19.6;;
55013;SDS011;40916;51.632;5.552;2023-01-10T02:49:17;1.9;;;5.5;;
55013;SDS011;40916;51.632;5.552;2023-01-10T02:54:17;2.8;;;13.6;;
55013;SDS011;40916;51.632;5.552;2023-01-10T02:59:21;3.1;;;14.7;;
55013;SDS011;40916;51.632;5.552;2023-01-10T03:04:19;2.9;;;11.7;;
55013;SDS011;40916;51.632;5.552;2023-01-10T03:09:18;4.5;;;22.5;;
55013;SDS011;40916;51.632;5.552;2023-01-10T03:14:17;4.8;;;17.6;;
55013;SDS011;40916;51.632;5.552;2023-01-10T03:19:18;2.6;;;9.7;;
55013;SDS011;40916;51.632;5.552;2023-01-10T03:24:18;3;;;9.4;;
55013;SDS011;40916;51.632;5.552;2023-01-10T03:29:18;2.9;;;8.1;;
55013;SDS011;40916;51.632;5.552;2023-01-10T03:34:17;3.9;;;14.7;;
55013;SDS011;40916;51.632;5.552;2023-01-10T03:39:17;4.4;;;19.9;;
55013;SDS011;40916;51.632;5.552;2023-01-10T03:44:17;3.5;;;16;;
55013;SDS011;40916;51.632;5.552;2023-01-10T03:49:17;4.3;;;16.6;;
55013;SDS011;40916;51.632;5.552;2023-01-10T03:54:17;3.9;;;30.2;;
55013;SDS011;40916;51.632;5.552;2023-01-10T03:59:17;4.5;;;20.4;;
55013;SDS011;40916;51.632;5.552;2023-01-10T04:04:17;3.9;;;26.4;;
55013;SDS011;40916;51.632;5.552;2023-01-10T04:09:17;2.1;;;8.8;;
55013;SDS011;40916;51.632;5.552;2023-01-10T04:14:17;2.7;;;9;;
55013;SDS011;40916;51.632;5.552;2023-01-10T04:19:17;2.1;;;8.2;;
55013;SDS011;40916;51.632;5.552;2023-01-10T04:24:17;2.8;;;16.3;;
55013;SDS011;40916;51.632;5.552;2023-01-10T04:29:17;3.7;;;15.2;;
55013;SDS011;40916;51.632;5.552;2023-01-10T04:34:17;4.5;;;25.9;;
55013;SDS011;40916;51.632;5.552;2023-01-10T04:39:17;3.3;;;25.6;;
55013;SDS011;40916;51.632;5.552;2023-01-10T04:44:17;4.2;;;23.7;;
55013;SDS011;40916;51.632;5.552;2023-01-10T04:49:17;4.4;;;23.8;;
55013;SDS011;40916;51.632;5.552;2023-01-10T04:54:18;3.3;;;20.1;;
55013;SDS011;40916;51.632;5.552;2023-01-10T04:59:17;4.6;;;23.1;;
55013;SDS011;40916;51.632;5.552;2023-01-10T05:04:17;2.1;;;9.8;;
55013;SDS011;40916;51.632;5.552;2023-01-10T05:09:17;3.6;;;21.9;;
55013;SDS011;40916;51.632;5.552;2023-01-10T05:14:17;3.9;;;22.7;;
55013;SDS011;40916;51.632;5.552;2023-01-10T05:19:16;3.7;;;22.2;;
55013;SDS011;40916;51.632;5.552;2023-01-10T05:24:17;3.3;;;19.2;;
55013;SDS011;40916;51.632;5.552;2023-01-10T05:29:16;3.7;;;28.1;;
55013;SDS011;40916;51.632;5.552;2023-01-10T05:34:17;3.3;;;24.6;;
55013;SDS011;40916;51.632;5.552;2023-01-10T05:39:16;2.6;;;11.3;;
55013;SDS011;40916;51.632;5.552;2023-01-10T05:44:16;4.4;;;23.9;;
55013;SDS011;40916;51.632;5.552;2023-01-10T05:49:16;2.9;;;15;;
55013;SDS011;40916;51.632;5.552;2023-01-10T05:54:17;3.3;;;17.2;;
55013;SDS011;40916;51.632;5.552;2023-01-10T05:59:17;3;;;22.5;;
55013;SDS011;40916;51.632;5.552;2023-01-10T06:04:16;6;;;28.7;;
55013;SDS011;40916;51.632;5.552;2023-01-10T06:09:16;2.5;;;17.3;;
55013;SDS011;40916;51.632;5.552;2023-01-10T06:14:16;4.8;;;27.5;;
55013;SDS011;40916;51.632;5.552;2023-01-10T06:19:16;4.7;;;29.6;;
55013;SDS011;40916;51.632;5.552;2023-01-10T06:24:17;3;;;16;;
55013;SDS011;40916;51.632;5.552;2023-01-10T06:29:16;2.9;;;19.1;;
55013;SDS011;40916;51.632;5.552;2023-01-10T06:34:16;3.9;;;30.5;;
55013;SDS011;40916;51.632;5.552;2023-01-10T06:39:16;4.4;;;29.6;;
55013;SDS011;40916;51.632;5.552;2023-01-10T06:44:16;3.6;;;23.9;;
55013;SDS011;40916;51.632;5.552;2023-01-10T06:49:17;3.4;;;28.8;;
55013;SDS011;40916;51.632;5.552;2023-01-10T06:54:16;5;;;32;;
55013;SDS011;40916;51.632;5.552;2023-01-10T06:59:16;4;;;21;;
55013;SDS011;40916;51.632;5.552;2023-01-10T07:04:16;3.6;;;26;;
55013;SDS011;40916;51.632;5.552;2023-01-10T07:09:16;3.8;;;26;;
55013;SDS011;40916;51.632;5.552;2023-01-10T07:14:16;2.9;;;16.9;;
55013;SDS011;40916;51.632;5.552;2023-01-10T07:19:16;2.8;;;19.3;;
55013;SDS011;40916;51.632;5.552;2023-01-10T07:24:16;2.8;;;14.7;;
55013;SDS011;40916;51.632;5.552;2023-01-10T09:07:01;3.5;;;24.7;;
55013;SDS011;40916;51.632;5.552;2023-01-10T09:12:01;4.1;;;33.3;;
55013;SDS011;40916;51.632;5.552;2023-01-10T09:17:01;2.2;;;11.3;;
55013;SDS011;40916;51.632;5.552;2023-01-10T09:22:01;4.3;;;28.6;;
55013;SDS011;40916;51.632;5.552;2023-01-10T09:27:01;3.1;;;26.3;;
55013;SDS011;40916;51.632;5.552;2023-01-10T09:32:01;4.4;;;36.3;;
55013;SDS011;40916;51.632;5.552;2023-01-10T09:37:01;3.9;;;24.6;;
55013;SDS011;40916;51.632;5.552;2023-01-10T09:42:04;5.4;;;34.9;;
55013;SDS011;40916;51.632;5.552;2023-01-10T09:47:03;3.9;;;27.4;;
55013;SDS011;40916;51.632;5.552;2023-01-10T09:52:01;4.1;;;23.9;;
55013;SDS011;40916;51.632;5.552;2023-01-10T09:57:01;3.8;;;28.8;;
55013;SDS011;40916;51.632;5.552;2023-01-10T10:02:03;2.3;;;14;;
55013;SDS011;40916;51.632;5.552;2023-01-10T10:07:01;3.1;;;23.2;;
55013;SDS011;40916;51.632;5.552;2023-01-10T10:12:05;4.1;;;21.3;;
55013;SDS011;40916;51.632;5.552;2023-01-10T10:17:05;2;;;10.8;;
55013;SDS011;40916;51.632;5.552;2023-01-10T10:22:02;3.7;;;26.6;;
55013;SDS011;40916;51.632;5.552;2023-01-10T10:27:02;5;;;33.6;;
55013;SDS011;40916;51.632;5.552;2023-01-10T10:32:04;3.8;;;27.3;;
55013;SDS011;40916;51.632;5.552;2023-01-10T10:37:01;3.7;;;16.2;;
55013;SDS011;40916;51.632;5.552;2023-01-10T10:42:01;4.5;;;31.6;;
55013;SDS011;40916;51.632;5.552;2023-01-10T10:47:01;5;;;38;;
55013;SDS011;40916;51.632;5.552;2023-01-10T10:52:01;3.9;;;23.4;;
55013;SDS011;40916;51.632;5.552;2023-01-10T10:57:01;4.9;;;29;;
55013;SDS011;40916;51.632;5.552;2023-01-10T11:02:01;4.4;;;34.5;;
55013;SDS011;40916;51.632;5.552;2023-01-10T11:07:01;4;;;28.3;;
55013;SDS011;40916;51.632;5.552;2023-01-10T11:12:01;3.5;;;23.9;;
55013;SDS011;40916;51.632;5.552;2023-01-10T11:17:15;4.2;;;28.2;;
55013;SDS011;40916;51.632;5.552;2023-01-10T11:22:01;4.1;;;21.7;;
55013;SDS011;40916;51.632;5.552;2023-01-10T11:27:02;4.6;;;26.9;;
55013;SDS011;40916;51.632;5.552;2023-01-10T11:32:06;3.9;;;20.7;;
55013;SDS011;40916;51.632;5.552;2023-01-10T11:37:01;3.7;;;22.5;;
55013;SDS011;40916;51.632;5.552;2023-01-10T11:42:23;4.1;;;30.9;;
55013;SDS011;40916;51.632;5.552;2023-01-10T11:47:02;3.7;;;21.1;;
55013;SDS011;40916;51.632;5.552;2023-01-10T11:52:02;4;;;25.1;;
55013;SDS011;40916;51.632;5.552;2023-01-10T11:57:01;4.1;;;25.3;;
55013;SDS011;40916;51.632;5.552;2023-01-10T12:02:01;6.2;;;35.6;;
55013;SDS011;40916;51.632;5.552;2023-01-10T12:07:01;4;;;23.4;;
55013;SDS011;40916;51.632;5.552;2023-01-10T12:12:01;4.1;;;25.3;;
55013;SDS011;40916;51.632;5.552;2023-01-10T12:22:01;6.2;;;25.2;;
55013;SDS011;40916;51.632;5.552;2023-01-10T12:27:01;5;;;25.5;;
55013;SDS011;40916;51.632;5.552;2023-01-10T12:32:01;5;;;28.6;;
55013;SDS011;40916;51.632;5.552;2023-01-10T12:37:03;3.8;;;18.9;;
55013;SDS011;40916;51.632;5.552;2023-01-10T12:42:02;4.3;;;24.9;;
55013;SDS011;40916;51.632;5.552;2023-01-10T12:47:02;4.3;;;20;;
55013;SDS011;40916;51.632;5.552;2023-01-10T12:52:02;4.4;;;24.2;;
55013;SDS011;40916;51.632;5.552;2023-01-10T12:57:01;3.9;;;22.4;;
55013;SDS011;40916;51.632;5.552;2023-01-10T13:02:00;4.6;;;21.2;;
55013;SDS011;40916;51.632;5.552;2023-01-10T13:07:00;3.5;;;21.5;;
55013;SDS011;40916;51.632;5.552;2023-01-10T13:12:01;4;;;20.4;;
55013;SDS011;40916;51.632;5.552;2023-01-10T13:17:02;3.1;;;18.2;;
55013;SDS011;40916;51.632;5.552;2023-01-10T13:22:17;4.1;;;27.8;;
55013;SDS011;40916;51.632;5.552;2023-01-10T13:27:01;3.5;;;23;;
55013;SDS011;40916;51.632;5.552;2023-01-10T13:32:00;2.3;;;13.5;;
55013;SDS011;40916;51.632;5.552;2023-01-10T13:37:01;3.7;;;20.8;;
55013;SDS011;40916;51.632;5.552;2023-01-10T13:42:32;5.6;;;30.5;;
55013;SDS011;40916;51.632;5.552;2023-01-10T13:47:00;4.3;;;21.2;;
55013;SDS011;40916;51.632;5.552;2023-01-10T13:52:31;5.2;;;24.2;;
55013;SDS011;40916;51.632;5.552;2023-01-10T13:57:00;5.4;;;23.9;;
55013;SDS011;40916;51.632;5.552;2023-01-10T14:02:00;3;;;15.3;;
55013;SDS011;40916;51.632;5.552;2023-01-10T14:07:01;2.9;;;13;;
55013;SDS011;40916;51.632;5.552;2023-01-10T14:12:01;2.2;;;15;;
55013;SDS011;40916;51.632;5.552;2023-01-10T14:17:09;4.8;;;26.9;;
55013;SDS011;40916;51.632;5.552;2023-01-10T14:22:01;3.3;;;20.6;;
55013;SDS011;40916;51.632;5.552;2023-01-10T14:27:00;4.6;;;29.1;;
55013;SDS011;40916;51.632;5.552;2023-01-10T14:32:00;4.2;;;27.8;;
55013;SDS011;40916;51.632;5.552;2023-01-10T14:37:01;3.3;;;17.8;;
55013;SDS011;40916;51.632;5.552;2023-01-10T14:42:01;4.7;;;31.1;;
55013;SDS011;40916;51.632;5.552;2023-01-10T14:47:00;3.1;;;21;;
55013;SDS011;40916;51.632;5.552;2023-01-10T14:52:16;2.8;;;16.3;;
55013;SDS011;40916;51.632;5.552;2023-01-10T14:57:00;4.1;;;32.4;;
55013;SDS011;40916;51.632;5.552;2023-01-10T15:02:01;3.9;;;18.7;;
55013;SDS011;40916;51.632;5.552;2023-01-10T15:07:01;3.2;;;17.7;;
55013;SDS011;40916;51.632;5.552;2023-01-10T15:12:01;3.3;;;15.8;;
55013;SDS011;40916;51.632;5.552;2023-01-10T15:17:01;1.8;;;10.7;;
55013;SDS011;40916;51.632;5.552;2023-01-10T15:22:00;3.3;;;16.7;;
55013;SDS011;40916;51.632;5.552;2023-01-10T15:27:01;1.7;;;8.4;;
55013;SDS011;40916;51.632;5.552;2023-01-10T15:32:02;5.4;;;28.3;;
55013;SDS011;40916;51.632;5.552;2023-01-10T15:37:00;2;;;12.2;;
55013;SDS011;40916;51.632;5.552;2023-01-10T15:42:01;2.4;;;12.9;;
55013;SDS011;40916;51.632;5.552;2023-01-10T15:47:00;2.6;;;13.5;;
55013;SDS011;40916;51.632;5.552;2023-01-10T15:52:00;2.2;;;12.2;;
55013;SDS011;40916;51.632;5.552;2023-01-10T15:57:05;3.3;;;15.1;;
55013;SDS011;40916;51.632;5.552;2023-01-10T16:02:03;2.4;;;12.8;;
55013;SDS011;40916;51.632;5.552;2023-01-10T16:07:04;3.3;;;20.1;;
55013;SDS011;40916;51.632;5.552;2023-01-10T16:12:00;3.1;;;17.7;;
55013;SDS011;40916;51.632;5.552;2023-01-10T16:17:00;2.3;;;14.2;;
55013;SDS011;40916;51.632;5.552;2023-01-10T16:22:00;2.8;;;9.8;;
55013;SDS011;40916;51.632;5.552;2023-01-10T16:27:01;3.5;;;13.3;;
55013;SDS011;40916;51.632;5.552;2023-01-10T16:32:00;2.8;;;13.2;;
55013;SDS011;40916;51.632;5.552;2023-01-10T16:37:00;2.6;;;12.1;;
55013;SDS011;40916;51.632;5.552;2023-01-10T16:42:00;3.8;;;14.2;;
55013;SDS011;40916;51.632;5.552;2023-01-10T16:47:01;2.4;;;9.1;;
55013;SDS011;40916;51.632;5.552;2023-01-10T16:52:00;2.6;;;6.5;;
55013;SDS011;40916;51.632;5.552;2023-01-10T16:57:00;2.5;;;10.8;;
55013;SDS011;40916;51.632;5.552;2023-01-10T17:02:00;3;;;7.7;;
55013;SDS011;40916;51.632;5.552;2023-01-10T17:07:00;4.6;;;13.4;;
55013;SDS011;40916;51.632;5.552;2023-01-10T17:12:01;2.4;;;5.9;;
55013;SDS011;40916;51.632;5.552;2023-01-10T17:17:00;3.1;;;11.6;;
55013;SDS011;40916;51.632;5.552;2023-01-10T17:22:00;1.5;;;3.5;;
55013;SDS011;40916;51.632;5.552;2023-01-10T17:27:00;2;;;5.8;;
55013;SDS011;40916;51.632;5.552;2023-01-10T17:32:00;2.6;;;7.3;;
55013;SDS011;40916;51.632;5.552;2023-01-10T17:37:00;5.3;;;15.7;;
55013;SDS011;40916;51.632;5.552;2023-01-10T17:42:00;3.3;;;9.9;;
55013;SDS011;40916;51.632;5.552;2023-01-10T17:47:00;2.6;;;6.5;;
55013;SDS011;40916;51.632;5.552;2023-01-10T17:52:00;3;;;9.9;;
55013;SDS011;40916;51.632;5.552;2023-01-10T17:57:00;1.5;;;3.6;;
55013;SDS011;40916;51.632;5.552;2023-01-10T18:02:00;1.3;;;3.3;;
55013;SDS011;40916;51.632;5.552;2023-01-10T18:07:00;2.1;;;4.9;;
55013;SDS011;40916;51.632;5.552;2023-01-10T18:12:00;2.4;;;4.2;;
55013;SDS011;40916;51.632;5.552;2023-01-10T18:17:00;2.4;;;7.1;;
55013;SDS011;40916;51.632;5.552;2023-01-10T18:22:00;2;;;3.4;;
55013;SDS011;40916;51.632;5.552;2023-01-10T18:27:00;2.2;;;4.2;;
55013;SDS011;40916;51.632;5.552;2023-01-10T18:32:00;1.7;;;4.6;;
55013;SDS011;40916;51.632;5.552;2023-01-10T18:37:00;1.6;;;4.6;;
55013;SDS011;40916;51.632;5.552;2023-01-10T18:42:00;1.9;;;4.1;;
55013;SDS011;40916;51.632;5.552;2023-01-10T18:47:00;2.2;;;5.2;;
55013;SDS011;40916;51.632;5.552;2023-01-10T18:52:00;1.3;;;3.4;;
55013;SDS011;40916;51.632;5.552;2023-01-10T18:57:00;1.5;;;5.6;;
55013;SDS011;40916;51.632;5.552;2023-01-10T19:02:00;1.9;;;3.3;;
55013;SDS011;40916;51.632;5.552;2023-01-10T19:07:00;1.7;;;3.5;;
55013;SDS011;40916;51.632;5.552;2023-01-10T19:12:00;1.3;;;4.1;;
55013;SDS011;40916;51.632;5.552;2023-01-10T19:17:00;2.4;;;5.1;;
55013;SDS011;40916;51.632;5.552;2023-01-10T19:22:00;1.9;;;4;;
55013;SDS011;40916;51.632;5.552;2023-01-10T19:27:00;1.4;;;3.6;;
55013;SDS011;40916;51.632;5.552;2023-01-10T19:32:01;1.9;;;5.1;;
55013;SDS011;40916;51.632;5.552;2023-01-10T19:37:00;1.9;;;5.2;;
55013;SDS011;40916;51.632;5.552;2023-01-10T19:42:00;1.9;;;4.6;;
55013;SDS011;40916;51.632;5.552;2023-01-10T19:47:00;1.9;;;5.8;;
55013;SDS011;40916;51.632;5.552;2023-01-10T19:52:00;2.3;;;3.7;;
55013;SDS011;40916;51.632;5.552;2023-01-10T19:57:00;5.2;;;10.5;;
55013;SDS011;40916;51.632;5.552;2023-01-10T20:02:00;2.9;;;6.4;;
55013;SDS011;40916;51.632;5.552;2023-01-10T20:07:00;2.6;;;4.7;;
55013;SDS011;40916;51.632;5.552;2023-01-10T20:12:00;2.3;;;4.2;;
55013;SDS011;40916;51.632;5.552;2023-01-10T20:17:00;2.4;;;5.3;;
55013;SDS011;40916;51.632;5.552;2023-01-10T20:22:00;2.1;;;3.7;;
55013;SDS011;40916;51.632;5.552;2023-01-10T20:27:00;1.5;;;3.4;;
55013;SDS011;40916;51.632;5.552;2023-01-10T20:32:00;2.4;;;4.4;;
55013;SDS011;40916;51.632;5.552;2023-01-10T20:37:00;2.6;;;5.3;;
55013;SDS011;40916;51.632;5.552;2023-01-10T20:42:00;2;;;4.3;;
55013;SDS011;40916;51.632;5.552;2023-01-10T20:47:00;1.5;;;3;;
55013;SDS011;40916;51.632;5.552;2023-01-10T20:52:00;2.9;;;6.1;;
55013;SDS011;40916;51.632;5.552;2023-01-10T20:57:00;2.5;;;6.7;;
55013;SDS011;40916;51.632;5.552;2023-01-10T21:02:00;3;;;4.9;;
55013;SDS011;40916;51.632;5.552;2023-01-10T21:07:00;2.9;;;4.8;;
55013;SDS011;40916;51.632;5.552;2023-01-10T21:12:00;3.7;;;6.3;;
55013;SDS011;40916;51.632;5.552;2023-01-10T21:17:00;2.5;;;4.6;;
55013;SDS011;40916;51.632;5.552;2023-01-10T21:22:00;3.2;;;8.1;;
55013;SDS011;40916;51.632;5.552;2023-01-10T21:27:00;3.3;;;7.2;;
55013;SDS011;40916;51.632;5.552;2023-01-10T21:32:00;3.8;;;7.2;;
55013;SDS011;40916;51.632;5.552;2023-01-10T21:37:00;3.1;;;5.4;;
55013;SDS011;40916;51.632;5.552;2023-01-10T21:42:00;3.6;;;5.6;;
55013;SDS011;40916;51.632;5.552;2023-01-10T21:47:00;3.3;;;6;;
55013;SDS011;40916;51.632;5.552;2023-01-10T21:52:00;3;;;5;;
55013;SDS011;40916;51.632;5.552;2023-01-10T21:57:00;4.2;;;12.7;;
55013;SDS011;40916;51.632;5.552;2023-01-10T22:02:00;2.7;;;6.5;;
55013;SDS011;40916;51.632;5.552;2023-01-10T22:07:00;3.2;;;7.6;;
55013;SDS011;40916;51.632;5.552;2023-01-10T22:12:00;3.9;;;7.3;;
55013;SDS011;40916;51.632;5.552;2023-01-10T22:17:00;4.1;;;6.5;;
55013;SDS011;40916;51.632;5.552;2023-01-10T22:22:00;4.4;;;6.2;;
55013;SDS011;40916;51.632;5.552;2023-01-10T22:27:00;4.4;;;6.2;;
55013;SDS011;40916;51.632;5.552;2023-01-10T22:32:00;4.7;;;9;;
55013;SDS011;40916;51.632;5.552;2023-01-10T22:37:00;4;;;5.7;;
55013;SDS011;40916;51.632;5.552;2023-01-10T22:42:00;3.9;;;6.3;;
55013;SDS011;40916;51.632;5.552;2023-01-10T22:47:00;3.3;;;5.5;;
55013;SDS011;40916;51.632;5.552;2023-01-10T22:52:00;3.4;;;8.6;;
55013;SDS011;40916;51.632;5.552;2023-01-10T22:57:00;2.9;;;5.3;;
55013;SDS011;40916;51.632;5.552;2023-01-10T23:02:00;2.8;;;7.6;;
55013;SDS011;40916;51.632;5.552;2023-01-10T23:07:00;2.7;;;5.8;;
55013;SDS011;40916;51.632;5.552;2023-01-10T23:12:00;2.8;;;5.2;;
55013;SDS011;40916;51.632;5.552;2023-01-10T23:17:00;2.6;;;7;;
55013;SDS011;40916;51.632;5.552;2023-01-10T23:22:00;2.7;;;5.1;;
55013;SDS011;40916;51.632;5.552;2023-01-10T23:27:00;3;;;6.1;;
55013;SDS011;40916;51.632;5.552;2023-01-10T23:32:00;2.5;;;5.2;;
55013;SDS011;40916;51.632;5.552;2023-01-10T23:37:00;3.2;;;7;;
55013;SDS011;40916;51.632;5.552;2023-01-10T23:42:00;3.1;;;6;;
55013;SDS011;40916;51.632;5.552;2023-01-10T23:47:00;2.9;;;5;;
55013;SDS011;40916;51.632;5.552;2023-01-10T23:52:00;3.2;;;7;;
55013;SDS011;40916;51.632;5.552;2023-01-10T23:57:00;2.7;;;6.4;;
